Monday, February 18, 2019, 6:21 AM EST
Back to Local

KCAR, Caribou Municipal Airport

Location: Caribou, ME, United States Lat: 46.867
Local Time: 6:21 AM EST (11:21 GMT) Lon: -68.017
Time Zone: US/Eastern Elev: 626 ft

Show me the last for .
Show Decoded

2019-02-18 05:54 METAR KCAR 181054Z AUTO 00000KT 10SM CLR M26/M29 A2998 RMK AO2 SLP174 T12611294
                 $ =
2019-02-18 04:54 METAR KCAR 180954Z AUTO 00000KT 10SM CLR M26/M28 A2998 RMK AO2 SLP174 I1000
                 T12561278 $ =
2019-02-18 03:54 METAR KCAR 180854Z AUTO 00000KT 10SM CLR M25/M27 A2999 RMK AO2 SLP176 I1000
                 I3000 T12501272 58008 $ =
2019-02-18 02:54 METAR KCAR 180754Z AUTO 00000KT 10SM CLR M23/M25 A3000 RMK AO2 SLP178 I1000
                 T12281250 $ =
2019-02-18 01:54 METAR KCAR 180654Z AUTO 25003KT 10SM CLR M23/M26 A3001 RMK AO2 SLP183 T12281256
                 $ =
2019-02-18 00:54 METAR KCAR 180554Z AUTO 00000KT 10SM CLR M19/M22 A3001 RMK AO2 SLP182 T11941217
                 11144 21228 50002 $ =
2019-02-17 23:54 METAR KCAR 180454Z AUTO 01003KT 10SM CLR M21/M23 A3001 RMK AO2 SLP183 T12061233
                 410781222 $ =
2019-02-17 22:54 METAR KCAR 180354Z AUTO 35005KT 10SM CLR M17/M20 A3001 RMK AO2 SLP181 T11671200
                 $ =
2019-02-17 21:54 METAR KCAR 180254Z AUTO 00000KT 10SM FEW030 M18/M22 A3001 RMK AO2 SLP180
                 T11831217 55003 $ =
2019-02-17 20:54 METAR KCAR 180154Z AUTO 33005KT 10SM CLR M16/M21 A3000 RMK AO2 SLP177 T11561206
                 $ =
2019-02-17 19:54 METAR KCAR 180054Z AUTO 34007KT 10SM CLR M16/M21 A3000 RMK AO2 SLP180 T11611211
                 $ =
2019-02-17 18:54 METAR KCAR 172354Z AUTO 32007KT 10SM CLR M15/M21 A3002 RMK AO2 SLP184 T11501206
                 11078 21150 51014 =
2019-02-17 17:54 METAR KCAR 172254Z AUTO 31006KT 10SM CLR M12/M19 A3001 RMK AO2 SLP180 T11221194
                 =
2019-02-17 16:54 METAR KCAR 172154Z AUTO 32006KT 10SM CLR M11/M19 A2998 RMK AO2 SLP171 T11111194
                 =
2019-02-17 15:54 METAR KCAR 172054Z AUTO 32007KT 10SM CLR M09/M19 A2997 RMK AO2 SLP167 T10891189
                 56003 =
2019-02-17 14:54 METAR KCAR 171954Z AUTO 32008KT 10SM CLR M08/M18 A2998 RMK AO2 SLP167 T10781178
                 =
2019-02-17 13:54 METAR KCAR 171854Z AUTO 31010G14KT 10SM CLR M08/M17 A2997 RMK AO2 SLP164
                 T10781172 =
2019-02-17 12:54 METAR KCAR 171754Z AUTO 30006KT 10SM CLR M08/M18 A2998 RMK AO2 SLP169 T10831178
                 11083 21161 58012 =
2019-02-17 11:54 METAR KCAR 171654Z AUTO 33010KT 10SM CLR M09/M18 A2999 RMK AO2 SLP172 T10941183
                 =
2019-02-17 10:54 METAR KCAR 171554Z AUTO 32012KT 10SM CLR M11/M19 A3001 RMK AO2 SLP179 T11061189
                 =
2019-02-17 09:54 METAR KCAR 171454Z AUTO 30010KT 10SM CLR M12/M19 A3002 RMK AO2 SLP181 T11171194
                 53018 =
2019-02-17 08:54 METAR KCAR 171354Z AUTO 32009G15KT 10SM CLR M13/M19 A2999 RMK AO2 SLP172
                 T11281194 =
2019-02-17 07:54 METAR KCAR 171254Z AUTO 30005KT 10SM CLR M14/M20 A2998 RMK AO2 SLP166 T11441200
                 =
2019-02-17 06:54 METAR KCAR 171154Z AUTO 30006KT 10SM CLR M16/M20 A2997 RMK AO2 SLP163 70003
                 T11611200 11111 21172 51023 =

Support USWX by starting your Amazon purchase here.